Time;durP1;ratioP1;P1;durP2;ratioP2;P2;SDS_P1;SDS_P2;PMS_P1;PMS_P2;Temp;Humidity;BMP_temperature;BMP_pressure;BME280_temperature;BME280_humidity;BME280_pressure;Samples;Min_cycle;Max_cycle;Signal;HPM_P1;HPM_P2
2022/11/18 00:00:22;;;;;;;9.25;3.30;;;10.30;99.90;;;;;;6155509;23;20013;-87
2022/11/18 00:02:47;;;;;;;7.50;2.40;;;10.30;99.90;;;;;;6130987;23;20480;-87
2022/11/18 00:05:13;;;;;;;6.53;2.40;;;10.40;99.90;;;;;;6131709;23;20084;-87
2022/11/18 00:07:39;;;;;;;11.05;3.08;;;10.30;99.90;;;;;;6155585;23;20416;-87
2022/11/18 00:10:07;;;;;;;8.65;2.55;;;10.30;99.90;;;;;;6131140;23;20013;-87
2022/11/18 00:15:17;;;;;;;8.52;2.35;;;10.30;99.90;;;;;;6157286;23;20069;-90
2022/11/18 00:17:43;;;;;;;6.82;2.58;;;10.30;99.90;;;;;;6130998;23;20204;-87
2022/11/18 00:20:09;;;;;;;6.68;2.67;;;10.20;99.90;;;;;;6155647;23;20009;-87
2022/11/18 00:22:35;;;;;;;9.25;2.30;;;10.20;99.90;;;;;;6131147;23;20029;-87
2022/11/18 00:25:00;;;;;;;7.68;2.58;;;10.20;99.90;;;;;;6155543;23;20428;-87
2022/11/18 00:27:30;;;;;;;7.10;2.60;;;10.20;99.90;;;;;;6130690;23;20005;-87
2022/11/18 00:29:55;;;;;;;7.60;2.50;;;10.20;99.90;;;;;;6130542;23;20017;-88
2022/11/18 00:32:24;;;;;;;8.48;1.90;;;10.20;99.90;;;;;;6130289;23;20008;-86
2022/11/18 00:34:49;;;;;;;7.90;2.75;;;10.10;99.90;;;;;;6155083;23;20443;-85
2022/11/18 00:37:15;;;;;;;7.85;2.67;;;10.10;99.90;;;;;;6155344;23;20003;-86
2022/11/18 00:39:41;;;;;;;10.73;2.88;;;10.10;99.90;;;;;;6131450;23;20067;-85
2022/11/18 00:44:50;;;;;;;8.85;2.53;;;10.10;99.90;;;;;;6158181;23;20012;-86
2022/11/18 00:47:16;;;;;;;9.55;2.50;;;10.10;99.90;;;;;;6156042;23;20006;-85
2022/11/18 00:49:41;;;;;;;10.52;2.40;;;10.10;99.90;;;;;;6154788;23;20396;-86
2022/11/18 00:52:07;;;;;;;9.20;3.38;;;10.20;99.90;;;;;;6130580;23;20409;-85
2022/11/18 00:54:33;;;;;;;5.45;2.25;;;10.20;99.90;;;;;;6125359;23;20021;-85
2022/11/18 00:56:58;;;;;;;4.60;2.15;;;10.10;99.90;;;;;;6126166;23;20010;-86
2022/11/18 00:59:24;;;;;;;7.07;2.42;;;10.10;99.90;;;;;;6101202;23;20009;-86
2022/11/18 01:01:50;;;;;;;6.00;2.20;;;10.20;99.90;;;;;;6101090;23;20029;-86
2022/11/18 01:04:16;;;;;;;5.60;2.35;;;10.20;99.90;;;;;;6101032;23;20009;-85
2022/11/18 01:06:42;;;;;;;7.20;2.53;;;10.10;99.90;;;;;;6126947;23;20034;-85
2022/11/18 01:09:07;;;;;;;7.93;2.20;;;10.10;99.90;;;;;;6101120;23;20010;-86
2022/11/18 01:14:17;;;;;;;6.28;2.50;;;10.20;99.90;;;;;;6126864;23;20028;-86
2022/11/18 01:16:49;;;;;;;7.55;2.25;;;10.20;99.90;;;;;;6100864;23;20421;-86
2022/11/18 01:19:16;;;;;;;7.18;2.55;;;10.20;99.90;;;;;;6101211;23;20096;-86
2022/11/18 01:21:42;;;;;;;8.45;2.42;;;10.20;99.90;;;;;;6125138;23;20049;-86
2022/11/18 01:24:07;;;;;;;5.43;2.17;;;10.20;99.90;;;;;;6100947;23;20002;-86
2022/11/18 01:26:33;;;;;;;5.38;2.40;;;10.20;99.90;;;;;;6100696;23;20328;-86
2022/11/18 01:28:59;;;;;;;6.60;2.30;;;10.20;99.90;;;;;;6100808;23;20380;-86
2022/11/18 01:31:24;;;;;;;6.97;2.20;;;10.20;99.90;;;;;;6125435;23;20010;-86
2022/11/18 01:33:50;;;;;;;7.07;2.33;;;10.20;99.90;;;;;;6125416;23;20085;-85
2022/11/18 01:36:25;;;;;;;6.78;2.80;;;10.30;99.90;;;;;;6125545;23;20424;-86
2022/11/18 01:38:51;;;;;;;8.15;2.60;;;10.20;99.90;;;;;;6124602;23;20085;-86
2022/11/18 01:41:18;;;;;;;7.65;2.38;;;10.30;99.90;;;;;;6125421;23;20013;-85
2022/11/18 01:43:50;;;;;;;6.05;2.22;;;10.30;99.90;;;;;;6124781;23;20017;-86
2022/11/18 01:46:16;;;;;;;10.43;2.70;;;10.30;99.90;;;;;;6126520;23;20432;-86
2022/11/18 01:48:43;;;;;;;7.82;2.55;;;10.20;99.90;;;;;;6124727;23;20033;-86
2022/11/18 01:51:15;;;;;;;7.78;2.40;;;10.20;99.90;;;;;;6125199;23;20025;-86
2022/11/18 01:53:47;;;;;;;6.95;2.47;;;10.20;99.90;;;;;;6124758;23;19998;-87
2022/11/18 01:56:22;;;;;;;9.90;2.90;;;10.30;99.90;;;;;;6126573;23;20085;-87
2022/11/18 01:59:01;;;;;;;6.18;2.38;;;10.20;99.90;;;;;;6126441;23;20006;-86
2022/11/18 02:01:26;;;;;;;7.57;2.65;;;10.30;99.90;;;;;;6125365;23;20437;-86
2022/11/18 02:03:53;;;;;;;6.15;2.90;;;10.20;99.90;;;;;;6124851;23;20013;-86
2022/11/18 02:06:19;;;;;;;6.88;3.45;;;10.20;99.90;;;;;;6100648;23;20496;-86
2022/11/18 02:08:45;;;;;;;6.93;3.15;;;10.20;99.90;;;;;;6100389;23;20306;-88
2022/11/18 02:14:01;;;;;;;4.22;2.00;;;10.30;99.90;;;;;;6126780;23;20069;-86
2022/11/18 02:16:57;;;;;;;5.03;2.20;;;10.30;99.90;;;;;;6100644;23;20060;-86
2022/11/18 02:20:00;;;;;;;5.55;2.22;;;10.30;99.90;;;;;;6084069;23;20098;-86
2022/11/18 02:22:31;;;;;;;8.00;2.20;;;10.30;99.90;;;;;;6124658;23;20009;-86
2022/11/18 02:25:38;;;;;;;7.55;2.45;;;10.30;99.90;;;;;;6100465;23;20033;-86
2022/11/18 02:28:22;;;;;;;5.18;2.22;;;10.30;99.90;;;;;;6126690;23;19999;-86
2022/11/18 02:30:56;;;;;;;7.05;2.33;;;10.30;99.90;;;;;;6126246;23;20447;-86
2022/11/18 02:33:27;;;;;;;7.28;2.58;;;10.30;99.90;;;;;;6100839;23;20053;-86
2022/11/18 02:36:00;;;;;;;7.38;2.67;;;10.30;99.90;;;;;;6126202;23;20002;-86
2022/11/18 02:38:32;;;;;;;7.50;2.90;;;10.20;99.90;;;;;;6101468;23;19998;-86
2022/11/18 02:41:04;;;;;;;13.77;2.88;;;10.20;99.90;;;;;;6100840;23;20002;-86
2022/11/18 02:43:35;;;;;;;10.48;2.42;;;10.30;99.90;;;;;;6125191;23;20089;-86
2022/11/18 02:46:08;;;;;;;6.85;2.38;;;10.20;99.90;;;;;;6126975;23;20002;-86
2022/11/18 02:48:39;;;;;;;6.80;2.70;;;10.20;99.90;;;;;;6101184;23;20010;-86
2022/11/18 02:51:06;;;;;;;;;;;10.20;99.90;;;;;;6125937;23;20044;-86
2022/11/18 02:53:33;;;;;;;5.28;2.42;;;10.20;99.90;;;;;;6101613;23;19947;-86
2022/11/18 02:56:01;;;;;;;7.03;2.58;;;10.20;99.90;;;;;;6124463;23;20428;-87
2022/11/18 02:58:26;;;;;;;7.85;2.58;;;10.20;99.90;;;;;;6156788;23;20325;-86
2022/11/18 03:00:58;;;;;;;5.10;2.20;;;10.20;99.90;;;;;;6157022;23;20040;-86
2022/11/18 03:03:33;;;;;;;8.40;2.60;;;10.20;99.90;;;;;;6132126;23;20064;-86
2022/11/18 03:06:12;;;;;;;7.25;2.55;;;10.20;99.90;;;;;;6131885;23;20009;-86
2022/11/18 03:08:49;;;;;;;7.55;2.30;;;10.20;99.90;;;;;;6133257;23;20332;-88
2022/11/18 03:11:21;;;;;;;7.28;2.45;;;10.20;99.90;;;;;;6132125;23;20447;-86
2022/11/18 03:14:12;;;;;;;6.03;2.40;;;10.20;99.90;;;;;;6156863;23;20325;-87
2022/11/18 03:16:50;;;;;;;6.70;2.30;;;10.20;99.90;;;;;;6132726;23;20032;-87
2022/11/18 03:19:41;;;;;;;4.95;2.40;;;10.20;99.90;;;;;;6158053;23;20009;-87
2022/11/18 03:22:18;;;;;;;3.95;2.25;;;10.20;99.90;;;;;;6158120;23;20006;-86
2022/11/18 03:25:09;;;;;;;6.60;2.30;;;10.20;99.90;;;;;;6156201;23;20005;-87
2022/11/18 03:27:51;;;;;;;7.80;2.78;;;10.20;99.90;;;;;;6156348;23;20132;-86
2022/11/18 03:30:20;;;;;;;6.75;2.67;;;10.20;99.90;;;;;;6132027;23;20340;-86
2022/11/18 03:32:56;;;;;;;7.07;2.70;;;10.20;99.90;;;;;;6132127;23;20008;-87
2022/11/18 03:35:24;;;;;;;5.82;3.25;;;10.20;99.90;;;;;;6132797;23;20001;-86
2022/11/18 03:38:07;;;;;;;9.82;2.70;;;10.20;99.90;;;;;;6131519;23;20001;-87
2022/11/18 03:40:37;;;;;;;6.60;2.20;;;10.20;99.90;;;;;;6132661;23;20301;-87
2022/11/18 03:43:09;;;;;;;7.85;2.40;;;10.30;99.90;;;;;;6131982;23;20052;-87
2022/11/18 03:45:50;;;;;;;8.60;2.67;;;10.30;99.90;;;;;;6133129;23;20005;-87
2022/11/18 03:48:17;;;;;;;;;;;10.30;99.90;;;;;;6132838;23;20324;-87
2022/11/18 03:51:00;;;;;;;4.43;2.47;;;10.30;99.90;;;;;;6158637;23;19908;-89
2022/11/18 03:53:29;;;;;;;7.43;2.50;;;10.30;99.90;;;;;;6158277;23;20002;-87
2022/11/18 03:56:08;;;;;;;10.00;2.63;;;10.30;99.90;;;;;;6126974;23;20018;-88
2022/11/18 03:58:41;;;;;;;8.40;2.40;;;10.30;99.90;;;;;;6129018;23;20089;-88
2022/11/18 04:01:49;;;;;;;5.97;2.78;;;10.30;99.90;;;;;;6128531;23;20006;-88
2022/11/18 04:04:14;;;;;;;7.25;2.40;;;10.30;99.90;;;;;;6091508;23;20006;-88
2022/11/18 04:07:21;;;;;;;5.60;2.38;;;10.30;99.90;;;;;;6106573;23;20089;-87
2022/11/18 04:10:17;;;;;;;7.78;2.83;;;10.30;99.90;;;;;;6081913;23;20021;-89
2022/11/18 04:12:53;;;;;;;6.68;2.53;;;10.30;99.90;;;;;;6141374;23;20009;-87
2022/11/18 04:15:19;;;;;;;7.75;2.60;;;10.30;99.90;;;;;;6143937;23;20088;-87
2022/11/18 04:17:48;;;;;;;7.07;2.67;;;10.30;99.90;;;;;;6119888;23;20006;-86
2022/11/18 04:20:19;;;;;;;5.55;2.30;;;10.30;99.90;;;;;;6147055;23;20006;-87
2022/11/18 04:22:44;;;;;;;;;;;10.30;99.90;;;;;;6144105;23;20061;-88
2022/11/18 04:25:11;;;;;;;7.15;2.60;;;10.30;99.90;;;;;;6157786;23;20300;-88
2022/11/18 04:27:36;;;;;;;8.20;3.05;;;10.30;99.90;;;;;;6133119;23;20026;-89
2022/11/18 04:30:03;;;;;;;6.35;2.88;;;10.30;99.90;;;;;;6132251;23;20037;-88
2022/11/18 04:32:28;;;;;;;6.95;2.88;;;10.30;99.90;;;;;;6132128;23;20002;-87
2022/11/18 04:34:54;;;;;;;8.23;3.50;;;10.30;99.90;;;;;;6107219;23;20013;-87
2022/11/18 04:37:20;;;;;;;9.07;3.20;;;10.30;99.90;;;;;;6106094;23;20062;-88
2022/11/18 04:39:45;;;;;;;7.35;3.20;;;10.30;99.90;;;;;;6108861;23;20010;-88
2022/11/18 04:42:11;;;;;;;7.47;2.70;;;10.30;99.90;;;;;;6137845;23;20002;-87
2022/11/18 04:44:37;;;;;;;8.88;2.92;;;10.30;99.90;;;;;;6142178;23;20017;-87
2022/11/18 04:47:04;;;;;;;9.15;3.10;;;10.40;99.90;;;;;;6120780;23;20057;-87
2022/11/18 04:49:31;;;;;;;5.93;2.95;;;10.40;99.90;;;;;;6149201;23;20029;-88
2022/11/18 04:51:58;;;;;;;6.75;3.00;;;10.30;99.90;;;;;;6140317;23;20006;-88
2022/11/18 04:54:24;;;;;;;6.90;2.92;;;10.40;99.90;;;;;;6148790;23;19998;-88
2022/11/18 04:56:51;;;;;;;8.50;3.33;;;10.40;99.90;;;;;;6151490;23;20048;-87
2022/11/18 04:59:19;;;;;;;7.53;3.08;;;10.40;99.90;;;;;;6137118;23;20013;-87
2022/11/18 05:01:45;;;;;;;7.45;2.60;;;10.40;99.90;;;;;;6135268;23;20002;-87
2022/11/18 05:04:16;;;;;;;8.05;3.25;;;10.40;99.90;;;;;;6134441;23;20017;-87
2022/11/18 05:06:42;;;;;;;;;;;10.40;99.90;;;;;;6160019;23;20002;-87
2022/11/18 05:09:08;;;;;;;12.05;3.33;;;10.40;99.90;;;;;;6155361;23;19924;-87
2022/11/18 05:14:18;;;;;;;8.82;3.47;;;10.30;99.90;;;;;;6157792;23;20012;-87
2022/11/18 05:16:44;;;;;;;6.80;3.08;;;10.30;99.90;;;;;;6133066;23;20005;-87
2022/11/18 05:19:12;;;;;;;7.60;2.97;;;10.30;99.90;;;;;;6134084;23;20419;-87
2022/11/18 05:21:38;;;;;;;6.82;2.90;;;10.30;99.90;;;;;;6135117;23;20427;-87
2022/11/18 05:24:04;;;;;;;12.60;3.17;;;10.30;99.90;;;;;;6136332;23;20009;-87
2022/11/18 05:26:31;;;;;;;9.57;3.60;;;10.30;99.90;;;;;;6137132;23;20001;-88
2022/11/18 05:28:57;;;;;;;7.20;3.22;;;10.30;99.90;;;;;;6155949;23;20088;-88
2022/11/18 05:31:22;;;;;;;10.52;3.17;;;10.30;99.90;;;;;;6131538;23;20001;-88
2022/11/18 05:33:48;;;;;;;8.15;3.25;;;10.30;99.90;;;;;;6131220;23;20056;-87
2022/11/18 05:36:19;;;;;;;6.90;3.42;;;10.30;99.90;;;;;;6132163;23;20328;-87
2022/11/18 05:38:45;;;;;;;10.60;3.22;;;10.30;99.90;;;;;;6158371;23;20025;-87
2022/11/18 05:43:09;;;;;;;6.70;2.75;;;10.40;99.90;;;;;;6131625;23;20009;-87
2022/11/18 05:43:58;;;;;;;8.20;3.67;;;10.30;99.90;;;;;;6156634;23;20021;-89
2022/11/18 05:46:24;;;;;;;8.00;3.10;;;10.30;99.90;;;;;;6130730;23;20001;-87
2022/11/18 05:48:52;;;;;;;8.20;3.53;;;10.30;99.90;;;;;;6157170;23;20006;-88
2022/11/18 05:51:17;;;;;;;6.80;3.25;;;10.30;99.90;;;;;;6155118;23;20029;-87
2022/11/18 05:53:43;;;;;;;7.10;3.50;;;10.30;99.90;;;;;;6157177;23;20041;-87
2022/11/18 05:56:28;;;;;;;9.68;3.45;;;10.30;99.90;;;;;;6149120;23;20014;-87
2022/11/18 05:58:54;;;;;;;5.65;2.78;;;10.30;99.90;;;;;;6127420;23;20006;-87
2022/11/18 06:01:37;;;;;;;6.85;2.90;;;10.30;99.90;;;;;;6149803;23;20009;-86
2022/11/18 06:04:10;;;;;;;7.47;2.97;;;10.30;99.90;;;;;;6150459;23;20017;-86
2022/11/18 06:06:36;;;;;;;7.68;2.83;;;10.30;99.90;;;;;;6126457;23;20021;-86
2022/11/18 06:09:04;;;;;;;11.40;3.03;;;10.30;99.90;;;;;;6125706;23;20392;-87
2022/11/18 06:11:34;;;;;;;7.15;3.33;;;10.30;99.90;;;;;;6125558;23;20025;-86
2022/11/18 06:14:09;;;;;;;4.77;2.60;;;10.30;99.90;;;;;;6125577;23;20025;-87
2022/11/18 06:16:38;;;;;;;5.95;3.00;;;10.30;99.90;;;;;;6125156;23;20033;-87
2022/11/18 06:19:04;;;;;;;7.00;3.00;;;10.30;99.90;;;;;;6127348;23;20076;-86
2022/11/18 06:21:30;;;;;;;6.85;2.80;;;10.30;99.90;;;;;;6125321;23;20006;-86
2022/11/18 06:23:58;;;;;;;7.07;3.03;;;10.20;99.90;;;;;;6150318;23;20002;-87
2022/11/18 06:26:24;;;;;;;5.22;2.70;;;10.20;99.90;;;;;;6149959;23;20097;-87
2022/11/18 06:28:50;;;;;;;6.75;3.17;;;10.20;99.90;;;;;;6125837;23;20053;-86
2022/11/18 06:31:16;;;;;;;7.78;3.03;;;10.20;99.90;;;;;;6126749;23;20041;-87
2022/11/18 06:33:42;;;;;;;7.82;3.20;;;10.20;99.90;;;;;;6128759;23;20016;-86
2022/11/18 06:36:09;;;;;;;8.00;3.70;;;10.20;99.90;;;;;;6127955;23;20093;-87
2022/11/18 06:38:35;;;;;;;8.45;2.88;;;10.20;99.90;;;;;;6128163;23;20089;-87
2022/11/18 06:41:03;;;;;;;4.97;2.97;;;10.20;99.90;;;;;;6126803;23;20001;-88
2022/11/18 06:43:40;;;;;;;8.10;3.10;;;10.10;99.90;;;;;;6127778;23;20009;-87
2022/11/18 06:49:01;;;;;;;9.02;3.22;;;10.10;99.90;;;;;;6130005;23;20084;-88
2022/11/18 06:51:27;;;;;;;7.20;3.20;;;10.10;99.90;;;;;;6128021;23;20088;-88
2022/11/18 06:53:53;;;;;;;10.13;3.55;;;10.10;99.90;;;;;;6128349;23;20010;-87
2022/11/18 06:56:21;;;;;;;8.50;3.15;;;10.10;99.90;;;;;;6114387;23;20022;-88
2022/11/18 06:58:47;;;;;;;7.68;3.35;;;10.10;99.90;;;;;;6128056;23;20041;-86
2022/11/18 07:01:20;;;;;;;6.97;3.60;;;10.00;99.90;;;;;;6103436;23;20085;-86
2022/11/18 07:03:46;;;;;;;11.13;3.17;;;10.00;99.90;;;;;;6127627;23;20002;-86
2022/11/18 07:06:16;;;;;;;11.38;3.20;;;10.00;99.90;;;;;;6129005;23;20034;-87
2022/11/18 07:08:43;;;;;;;5.33;2.87;;;10.00;99.90;;;;;;6127222;23;20002;-86
2022/11/18 07:11:11;;;;;;;7.38;3.30;;;10.00;99.90;;;;;;6126984;23;20016;-86
2022/11/18 07:13:37;;;;;;;7.30;3.45;;;10.00;99.90;;;;;;6128166;23;20085;-86
2022/11/18 07:16:11;;;;;;;9.48;3.10;;;10.00;99.90;;;;;;6102811;23;20009;-86
2022/11/18 07:18:39;;;;;;;9.82;3.22;;;10.00;99.90;;;;;;6127660;23;20010;-87
2022/11/18 07:21:13;;;;;;;7.10;3.10;;;9.90;99.90;;;;;;6127592;23;20002;-87
2022/11/18 07:23:39;;;;;;;9.02;3.58;;;9.90;99.90;;;;;;6127692;23;20002;-87
2022/11/18 07:26:08;;;;;;;7.20;3.30;;;9.90;99.90;;;;;;6102592;23;20373;-87
2022/11/18 07:28:35;;;;;;;5.80;2.92;;;9.90;99.90;;;;;;6127646;23;20082;-86
2022/11/18 07:31:15;;;;;;;8.65;3.28;;;9.90;99.90;;;;;;6127168;23;20336;-87
2022/11/18 07:33:44;;;;;;;7.32;3.10;;;9.90;99.90;;;;;;6129253;23;20037;-87
2022/11/18 07:36:14;;;;;;;9.15;3.83;;;9.80;99.90;;;;;;6128692;23;19998;-89
2022/11/18 07:38:41;;;;;;;9.05;3.28;;;9.80;99.90;;;;;;6128176;23;20006;-87
2022/11/18 07:41:14;;;;;;;7.78;3.08;;;9.80;99.90;;;;;;6128183;23;20433;-87
2022/11/18 07:43:41;;;;;;;7.88;3.08;;;9.80;99.90;;;;;;6128677;23;20131;-87
2022/11/18 07:46:22;;;;;;;8.95;3.47;;;9.80;99.90;;;;;;6127837;23;20010;-88
2022/11/18 07:48:49;;;;;;;;;;;9.80;99.90;;;;;;6130380;23;20420;-87
2022/11/18 07:51:16;;;;;;;10.68;3.25;;;9.80;99.90;;;;;;6128659;23;19984;-88
2022/11/18 07:53:42;;;;;;;11.07;3.35;;;9.70;99.90;;;;;;6129406;23;20006;-87
2022/11/18 07:56:08;;;;;;;10.15;4.97;;;9.70;99.90;;;;;;6101688;23;20049;-90
2022/11/18 07:58:35;;;;;;;8.77;3.05;;;9.70;99.90;;;;;;6126265;23;20006;-86
2022/11/18 08:01:16;;;;;;;7.32;3.58;;;9.70;99.90;;;;;;6102205;23;20010;-87
2022/11/18 08:03:43;;;;;;;8.25;3.38;;;9.70;99.90;;;;;;6103955;23;20409;-87
2022/11/18 08:06:10;;;;;;;12.40;4.25;;;9.70;99.90;;;;;;6129037;23;20030;-86
2022/11/18 08:08:43;;;;;;;11.15;3.78;;;9.70;99.90;;;;;;6154443;23;20017;-87
2022/11/18 08:11:31;;;;;;;7.78;3.53;;;9.60;99.90;;;;;;6127231;23;20038;-86
2022/11/18 08:13:56;;;;;;;9.63;3.47;;;9.60;99.90;;;;;;6150063;23;20025;-85
2022/11/18 08:16:24;;;;;;;7.85;3.30;;;9.60;99.90;;;;;;6141288;23;20069;-85
2022/11/18 08:18:51;;;;;;;8.82;3.40;;;9.60;99.90;;;;;;6124073;23;19982;-86
2022/11/18 08:21:18;;;;;;;11.35;4.13;;;9.50;99.90;;;;;;6122852;23;20065;-86
2022/11/18 08:23:52;;;;;;;8.00;4.13;;;9.50;99.90;;;;;;6121519;23;20009;-87
2022/11/18 08:26:18;;;;;;;10.85;4.45;;;9.40;99.90;;;;;;6117572;23;20002;-86
2022/11/18 08:28:44;;;;;;;9.23;3.90;;;9.40;99.90;;;;;;6142067;23;20029;-87
2022/11/18 08:31:12;;;;;;;13.15;5.20;;;9.40;99.90;;;;;;6131939;23;20336;-86
2022/11/18 08:33:38;;;;;;;8.10;3.92;;;9.50;99.90;;;;;;6101904;23;20430;-86
2022/11/18 08:36:14;;;;;;;9.98;4.32;;;9.40;99.90;;;;;;6101491;23;20046;-87
2022/11/18 08:38:40;;;;;;;9.57;4.03;;;9.50;99.90;;;;;;6127746;23;20006;-88
2022/11/18 08:41:08;;;;;;;11.38;4.13;;;9.40;99.90;;;;;;6126267;23;20016;-88
2022/11/18 08:43:35;;;;;;;7.43;4.05;;;9.50;99.90;;;;;;6126373;23;20010;-87
2022/11/18 08:46:01;;;;;;;10.63;4.78;;;9.40;99.90;;;;;;6126991;23;20006;-88
2022/11/18 08:48:26;;;;;;;10.50;4.10;;;9.40;99.90;;;;;;6125776;23;20384;-87
2022/11/18 08:50:52;;;;;;;6.97;3.85;;;9.50;99.90;;;;;;6126007;23;20309;-87
2022/11/18 08:53:17;;;;;;;11.15;4.07;;;9.50;99.90;;;;;;6125813;23;20393;-87
2022/11/18 08:55:43;;;;;;;9.57;4.38;;;9.50;99.90;;;;;;6125464;23;20014;-87
2022/11/18 08:58:09;;;;;;;7.68;4.60;;;9.50;99.90;;;;;;6101076;23;20435;-86
2022/11/18 09:00:35;;;;;;;8.73;3.92;;;9.50;99.90;;;;;;6125402;23;20006;-87
2022/11/18 09:03:00;;;;;;;6.82;3.70;;;9.50;99.90;;;;;;6125568;23;20085;-87
2022/11/18 09:05:26;;;;;;;8.80;4.10;;;9.60;99.90;;;;;;6125869;23;20016;-88
2022/11/18 09:07:51;;;;;;;11.50;4.15;;;9.60;99.90;;;;;;6127148;23;20009;-86
2022/11/18 09:10:17;;;;;;;9.23;4.53;;;9.60;99.90;;;;;;6125102;23;20469;-86
2022/11/18 09:12:43;;;;;;;12.38;4.55;;;9.60;99.90;;;;;;6125612;23;20039;-86
2022/11/18 09:15:09;;;;;;;11.82;4.30;;;9.70;99.90;;;;;;6124600;23;20002;-86
2022/11/18 09:17:35;;;;;;;10.30;4.18;;;9.70;99.90;;;;;;6125361;23;20495;-85
2022/11/18 09:20:00;;;;;;;9.18;4.18;;;9.70;99.90;;;;;;6125350;23;20455;-85
2022/11/18 09:22:26;;;;;;;8.63;4.18;;;9.70;99.90;;;;;;6125180;23;20008;-85
2022/11/18 09:24:51;;;;;;;12.35;4.65;;;9.80;99.90;;;;;;6125284;23;20009;-85
2022/11/18 09:27:17;;;;;;;8.20;3.80;;;9.80;99.90;;;;;;6125661;23;20014;-86
2022/11/18 09:29:43;;;;;;;7.63;3.92;;;9.90;99.90;;;;;;6124538;23;20361;-85
2022/11/18 09:32:09;;;;;;;12.77;4.22;;;9.90;99.90;;;;;;6124085;23;20021;-87
2022/11/18 09:34:36;;;;;;;9.15;3.90;;;9.90;99.90;;;;;;6124455;23;20493;-85
2022/11/18 09:37:05;;;;;;;8.75;3.85;;;10.00;99.90;;;;;;6124870;23;20076;-85
2022/11/18 09:39:34;;;;;;;9.07;4.00;;;10.00;99.90;;;;;;6100071;23;20014;-85
2022/11/18 09:42:16;;;;;;;7.40;4.05;;;10.00;99.90;;;;;;6125012;23;20013;-89
2022/11/18 09:45:19;;;;;;;9.80;3.65;;;10.10;99.90;;;;;;6126525;23;20025;-85
2022/11/18 09:47:45;;;;;;;10.45;3.90;;;10.20;99.90;;;;;;6124835;23;20012;-86
2022/11/18 09:50:15;;;;;;;8.95;4.13;;;10.20;99.90;;;;;;6125759;23;20034;-86
2022/11/18 09:52:59;;;;;;;8.88;3.80;;;10.30;99.90;;;;;;6100520;23;20364;-85
2022/11/18 09:55:25;;;;;;;14.30;4.57;;;10.30;99.90;;;;;;6100219;23;20009;-86
2022/11/18 09:57:54;;;;;;;8.90;4.07;;;10.30;99.90;;;;;;6153871;23;20196;-86
2022/11/18 10:00:24;;;;;;;10.82;3.70;;;10.30;99.90;;;;;;6154366;23;20100;-86
2022/11/18 10:03:06;;;;;;;10.70;3.97;;;10.40;99.90;;;;;;6154410;23;20005;-87
2022/11/18 10:05:47;;;;;;;11.35;4.28;;;10.50;99.90;;;;;;6129404;23;20009;-86
2022/11/18 10:08:32;;;;;;;9.38;4.20;;;10.50;99.90;;;;;;6155453;23;20447;-86
2022/11/18 10:11:13;;;;;;;11.05;4.07;;;10.60;99.90;;;;;;6153844;23;20016;-86
2022/11/18 10:13:45;;;;;;;;;;;10.60;99.90;;;;;;6154861;23;20092;-86
2022/11/18 10:16:55;;;;;;;10.70;4.05;;;10.60;99.90;;;;;;6129885;23;19947;-86
2022/11/18 10:19:34;;;;;;;9.63;4.18;;;10.70;99.90;;;;;;6095017;23;20017;-85
2022/11/18 10:25:22;;;;;;;7.63;3.78;;;10.70;99.90;;;;;;6155567;23;20085;-85
2022/11/18 10:27:49;;;;;;;16.25;4.50;;;10.80;99.90;;;;;;6154384;23;20033;-84
2022/11/18 10:30:16;;;;;;;14.30;3.90;;;10.80;99.90;;;;;;6156113;23;20008;-84
2022/11/18 10:32:55;;;;;;;12.73;4.18;;;10.90;99.90;;;;;;6155892;23;20012;-84
2022/11/18 10:38:44;;;;;;;10.82;4.05;;;11.00;99.90;;;;;;6155937;23;20048;-84
2022/11/18 10:41:15;;;;;;;9.77;3.72;;;11.10;99.90;;;;;;6154221;23;19997;-85
2022/11/18 10:43:53;;;;;;;7.45;3.92;;;11.10;99.90;;;;;;6130287;23;20324;-85
2022/11/18 10:46:18;;;;;;;6.45;3.47;;;11.10;99.90;;;;;;6130256;23;20080;-84
2022/11/18 10:48:44;;;;;;;7.47;3.30;;;11.10;99.90;;;;;;6155720;23;20360;-84
2022/11/18 10:51:22;;;;;;;10.23;3.67;;;11.20;99.90;;;;;;6155174;23;20010;-84
2022/11/18 10:53:48;;;;;;;9.85;4.00;;;11.20;99.90;;;;;;6156277;23;20036;-85
2022/11/18 10:56:17;;;;;;;10.05;4.07;;;11.30;99.90;;;;;;6149246;23;20021;-84
2022/11/18 10:58:48;;;;;;;7.82;3.95;;;11.30;99.90;;;;;;6149731;23;20005;-84
2022/11/18 11:01:46;;;;;;;13.15;4.65;;;11.30;99.90;;;;;;6149499;23;20006;-85
2022/11/18 11:07:39;;;;;;;11.60;4.18;;;11.50;99.90;;;;;;6126673;23;20009;-84
2022/11/18 11:13:34;;;;;;;8.02;3.90;;;11.50;99.90;;;;;;6126466;23;20005;-84
2022/11/18 11:16:04;;;;;;;9.35;3.78;;;11.60;99.90;;;;;;6125055;23;20101;-84
2022/11/18 11:21:30;;;;;;;8.00;3.60;;;11.70;99.90;;;;;;6128875;23;20046;-85
2022/11/18 11:28:00;;;;;;;9.13;3.47;;;11.70;99.90;;;;;;6128397;23;20450;-84
2022/11/18 11:30:26;;;;;;;11.88;3.53;;;11.80;99.90;;;;;;6126704;23;20458;-84
2022/11/18 11:33:20;;;;;;;8.43;4.57;;;11.80;99.90;;;;;;6127194;23;20088;-83
2022/11/18 11:39:29;;;;;;;7.88;3.42;;;11.90;99.90;;;;;;6127995;23;20124;-84
2022/11/18 11:45:34;;;;;;;10.25;3.50;;;11.90;99.90;;;;;;6127720;23;20013;-85
2022/11/18 11:51:33;;;;;;;10.13;3.75;;;12.00;99.90;;;;;;6140486;23;20101;-83
2022/11/18 11:54:02;;;;;;;9.20;3.72;;;12.10;99.90;;;;;;6127193;23;20006;-84
2022/11/18 11:56:41;;;;;;;9.27;3.63;;;12.10;99.90;;;;;;6133931;23;20441;-83
2022/11/18 12:02:49;;;;;;;7.32;3.53;;;12.10;99.90;;;;;;6127590;23;20131;-85
2022/11/18 12:08:30;;;;;;;10.30;3.58;;;12.10;99.90;;;;;;6127438;23;20013;-84
2022/11/18 12:10:59;;;;;;;;;;;12.10;99.90;;;;;;6102409;23;20149;-85
2022/11/18 12:13:31;;;;;;;10.73;3.92;;;12.10;99.90;;;;;;6127938;23;19912;-85
2022/11/18 12:19:26;;;;;;;11.23;4.00;;;12.20;99.90;;;;;;6128157;23;20413;-85
2022/11/18 12:25:58;;;;;;;8.43;3.70;;;12.20;99.90;;;;;;6127852;23;20331;-84
2022/11/18 12:28:28;;;;;;;11.38;3.50;;;12.20;99.90;;;;;;6126082;23;20009;-84
2022/11/18 12:31:22;;;;;;;9.50;3.70;;;12.20;99.90;;;;;;6101961;23;20002;-84
2022/11/18 12:33:54;;;;;;;9.75;4.00;;;12.20;99.90;;;;;;6101345;23;20345;-84
2022/11/18 12:36:31;;;;;;;10.48;3.72;;;12.20;99.90;;;;;;6100943;23;20033;-85
2022/11/18 12:38:58;;;;;;;7.93;3.72;;;12.30;99.90;;;;;;6101137;23;20009;-85
2022/11/18 12:44:28;;;;;;;7.85;3.40;;;12.30;99.90;;;;;;6126900;23;20013;-85
2022/11/18 12:47:04;;;;;;;10.70;3.90;;;12.30;99.90;;;;;;6101094;23;20305;-84
2022/11/18 12:49:29;;;;;;;12.82;4.75;;;12.30;99.90;;;;;;6102068;23;20068;-84
2022/11/18 12:51:57;;;;;;;9.10;3.85;;;12.30;99.90;;;;;;6127399;23;20355;-85
2022/11/18 12:54:29;;;;;;;14.85;5.28;;;12.40;99.90;;;;;;6125567;23;20056;-84
2022/11/18 12:56:58;;;;;;;10.07;3.80;;;12.40;99.90;;;;;;6126447;23;20021;-85
2022/11/18 12:59:30;;;;;;;10.45;3.45;;;12.40;99.90;;;;;;6101117;23;20006;-85
2022/11/18 13:02:20;;;;;;;11.75;4.00;;;12.40;99.90;;;;;;6127511;23;20073;-84
2022/11/18 13:05:08;;;;;;;10.45;3.22;;;12.40;99.90;;;;;;6127473;23;20057;-85
2022/11/18 13:08:14;;;;;;;11.10;4.03;;;12.40;99.90;;;;;;6100830;23;19998;-84
2022/11/18 13:10:43;;;;;;;9.25;3.28;;;12.40;99.90;;;;;;6119323;23;20010;-84
2022/11/18 13:13:20;;;;;;;13.02;3.50;;;12.40;99.90;;;;;;6126282;23;20050;-84
2022/11/18 13:18:31;;;;;;;9.00;3.40;;;12.30;99.90;;;;;;6125410;23;20045;-83
2022/11/18 13:23:50;;;;;;;8.25;2.70;;;12.30;99.90;;;;;;6125640;23;20010;-85
2022/11/18 13:23:50;;;;;;;12.57;3.80;;;12.40;99.90;;;;;;6126446;23;20006;-85
2022/11/18 13:26:29;;;;;;;8.98;3.13;;;12.40;99.90;;;;;;6125971;23;20006;-85
2022/11/18 13:29:15;;;;;;;9.52;2.83;;;12.40;99.90;;;;;;6101172;23;20012;-87
2022/11/18 13:32:06;;;;;;;13.55;4.22;;;12.40;99.90;;;;;;6101938;23;20018;-87
2022/11/18 13:35:16;;;;;;;9.80;2.90;;;12.40;99.90;;;;;;6126287;23;20054;-86
2022/11/18 13:41:22;;;;;;;10.35;2.97;;;12.40;99.90;;;;;;6040605;23;20022;-85
2022/11/18 13:43:49;;;;;;;15.15;3.20;;;12.40;99.90;;;;;;6037795;23;20099;-85
2022/11/18 13:46:20;;;;;;;8.40;2.90;;;12.50;99.90;;;;;;6060838;23;20315;-85
2022/11/18 13:48:47;;;;;;;;;;;12.60;99.90;;;;;;6122658;23;20002;-83
2022/11/18 13:51:14;;;;;;;9.30;2.72;;;12.60;99.90;;;;;;6100278;23;19961;-83
2022/11/18 13:53:40;;;;;;;5.15;2.85;;;12.60;99.90;;;;;;6124763;23;20034;-84
2022/11/18 13:56:15;;;;;;;8.07;2.90;;;12.70;99.90;;;;;;6123965;23;20010;-83
2022/11/18 13:58:50;;;;;;;8.15;2.90;;;12.70;99.90;;;;;;6100736;23;20028;-83
2022/11/18 14:01:23;;;;;;;11.10;3.75;;;12.70;99.90;;;;;;6100892;23;20084;-83
2022/11/18 14:04:01;;;;;;;10.57;3.55;;;12.70;99.90;;;;;;6100354;23;20012;-84
2022/11/18 14:06:34;;;;;;;10.52;2.90;;;12.70;99.90;;;;;;6124956;23;20002;-85
2022/11/18 14:09:21;;;;;;;7.82;2.65;;;12.70;99.90;;;;;;6100272;23;20001;-84
2022/11/18 14:22:38;;;;;;;10.27;3.25;;;12.70;99.90;;;;;;6124586;23;20021;-86
2022/11/18 14:25:28;;;;;;;11.43;3.00;;;12.70;99.90;;;;;;6100341;23;20006;-89
2022/11/18 14:28:17;;;;;;;12.27;3.33;;;12.60;99.90;;;;;;6149639;23;20002;-92
2022/11/18 14:31:19;;;;;;;7.75;3.17;;;12.60;99.90;;;;;;6124809;23;20006;-88
2022/11/18 14:34:25;;;;;;;;;;;;;;;;;;;;;